Time;durP1;ratioP1;P1;durP2;ratioP2;P2;SDS_P1;SDS_P2;PMS_P1;PMS_P2;Temp;Humidity;BMP_temperature;BMP_pressure;BME280_temperature;BME280_humidity;BME280_pressure;Samples;Min_cycle;Max_cycle;Signal;HPM_P1;HPM_P2
2022/10/04 00:01:50;;;;;;;14.77;9.48;;;;;;;;;;5051619;28;20451;-68
2022/10/04 00:04:16;;;;;;;14.65;8.57;;;;;;;;;;5053985;28;20037;-69
2022/10/04 00:06:54;;;;;;;12.95;8.93;;;;;;;;;;5057510;28;20044;-68
2022/10/04 00:09:23;;;;;;;15.93;9.02;;;;;;;;;;5049097;28;20048;-68
2022/10/04 00:11:51;;;;;;;16.75;8.43;;;;;;;;;;5053379;28;20036;-68
2022/10/04 00:14:20;;;;;;;15.75;9.35;;;;;;;;;;5070636;28;20041;-68
2022/10/04 00:16:46;;;;;;;16.42;8.60;;;;;;;;;;5054149;28;20037;-68
2022/10/04 00:19:15;;;;;;;15.05;8.15;;;;;;;;;;5053266;28;20501;-69
2022/10/04 00:21:56;;;;;;;22.50;9.65;;;;;;;;;;5056170;28;20056;-68
2022/10/04 00:24:23;;;;;;;15.82;8.43;;;;;;;;;;5053065;28;20586;-68
2022/10/04 00:26:49;;;;;;;14.40;9.30;;;;;;;;;;5051282;28;21180;-68
2022/10/04 00:29:36;;;;;;;16.08;10.48;;;;;;;;;;5055441;28;20052;-68
2022/10/04 00:32:11;;;;;;;17.30;9.90;;;;;;;;;;5054218;28;20521;-68
2022/10/04 00:34:48;;;;;;;17.20;9.27;;;;;;;;;;5054722;28;20037;-68
2022/10/04 00:37:14;;;;;;;15.85;8.18;;;;;;;;;;5054620;28;20052;-68
2022/10/04 00:39:42;;;;;;;15.80;10.10;;;;;;;;;;5069436;28;20048;-68
2022/10/04 00:42:11;;;;;;;13.57;8.05;;;;;;;;;;5070290;28;20064;-68
2022/10/04 00:44:50;;;;;;;15.43;8.75;;;;;;;;;;5052970;28;20042;-68
2022/10/04 00:47:30;;;;;;;16.40;9.32;;;;;;;;;;5070404;28;20169;-68
2022/10/04 00:50:00;;;;;;;19.70;9.10;;;;;;;;;;5055269;28;20053;-68
2022/10/04 00:52:28;;;;;;;15.38;10.32;;;;;;;;;;5052207;28;20041;-68
2022/10/04 00:54:57;;;;;;;14.52;9.32;;;;;;;;;;5055548;28;20116;-68
2022/10/04 00:57:27;;;;;;;16.08;8.15;;;;;;;;;;5054735;28;20045;-68
2022/10/04 00:59:57;;;;;;;14.82;8.57;;;;;;;;;;5052896;28;20140;-68
2022/10/04 01:02:33;;;;;;;17.98;9.10;;;;;;;;;;5052961;28;20037;-68
2022/10/04 01:04:59;;;;;;;20.20;10.10;;;;;;;;;;5053838;28;20037;-68
2022/10/04 01:07:44;;;;;;;15.02;8.18;;;;;;;;;;5054273;28;20974;-68
2022/10/04 01:10:13;;;;;;;18.67;8.75;;;;;;;;;;5056178;28;20583;-68
2022/10/04 01:13:02;;;;;;;11.88;8.27;;;;;;;;;;5053270;28;20061;-68
2022/10/04 01:15:36;;;;;;;16.45;8.30;;;;;;;;;;5071268;28;20303;-68
2022/10/04 01:18:10;;;;;;;14.13;8.93;;;;;;;;;;5048848;28;20069;-68
2022/10/04 01:20:38;;;;;;;11.55;7.75;;;;;;;;;;5052663;28;20562;-68
2022/10/04 01:23:04;;;;;;;17.13;9.05;;;;;;;;;;5052641;28;20072;-68
2022/10/04 01:25:44;;;;;;;12.85;7.00;;;;;;;;;;5070090;28;20043;-68
2022/10/04 01:28:10;;;;;;;11.57;7.93;;;;;;;;;;5051121;28;20044;-68
2022/10/04 01:30:36;;;;;;;16.00;9.95;;;;;;;;;;5067509;28;20078;-68
2022/10/04 01:33:05;;;;;;;11.57;7.53;;;;;;;;;;5052629;28;20053;-68
2022/10/04 01:35:34;;;;;;;13.93;8.23;;;;;;;;;;5048804;28;20041;-69
2022/10/04 01:38:01;;;;;;;16.33;8.30;;;;;;;;;;5058315;28;20592;-68
2022/10/04 01:40:30;;;;;;;13.85;9.07;;;;;;;;;;5067605;28;20045;-68
2022/10/04 01:42:59;;;;;;;20.70;9.48;;;;;;;;;;5049510;28;20084;-68
2022/10/04 01:45:28;;;;;;;16.20;9.68;;;;;;;;;;5051781;28;20111;-68
2022/10/04 01:48:02;;;;;;;14.88;8.30;;;;;;;;;;5054335;28;20056;-68
2022/10/04 01:50:28;;;;;;;15.65;8.98;;;;;;;;;;5056721;28;20048;-68
2022/10/04 01:53:00;;;;;;;12.35;7.55;;;;;;;;;;5064212;28;20132;-68
2022/10/04 01:55:29;;;;;;;14.05;7.60;;;;;;;;;;5055159;28;20043;-68
2022/10/04 01:58:00;;;;;;;13.00;6.75;;;;;;;;;;5066195;28;20895;-69
2022/10/04 02:00:28;;;;;;;19.70;8.90;;;;;;;;;;5054105;28;20037;-68
2022/10/04 02:03:03;;;;;;;13.65;8.85;;;;;;;;;;5065103;28;20052;-68
2022/10/04 02:05:32;;;;;;;12.98;8.57;;;;;;;;;;5055954;28;20690;-68
2022/10/04 02:08:02;;;;;;;15.80;8.20;;;;;;;;;;5055578;28;20076;-68
2022/10/04 02:10:29;;;;;;;13.15;8.18;;;;;;;;;;5069929;28;20052;-68
2022/10/04 02:12:56;;;;;;;14.15;9.55;;;;;;;;;;5053919;28;20037;-68
2022/10/04 02:15:27;;;;;;;14.63;8.63;;;;;;;;;;5053819;28;20107;-68
2022/10/04 02:17:54;;;;;;;12.63;7.97;;;;;;;;;;5069401;28;20531;-68
2022/10/04 02:20:23;;;;;;;17.38;9.10;;;;;;;;;;5087752;27;20052;-68
2022/10/04 02:22:51;;;;;;;14.10;8.90;;;;;;;;;;5054757;28;20104;-68
2022/10/04 02:25:19;;;;;;;16.35;9.45;;;;;;;;;;5056855;28;20107;-68
2022/10/04 02:27:45;;;;;;;23.73;12.32;;;;;;;;;;5054759;28;20037;-68
2022/10/04 02:30:12;;;;;;;15.50;8.85;;;;;;;;;;5052525;28;20518;-68
2022/10/04 02:32:58;;;;;;;14.45;8.95;;;;;;;;;;5054222;28;20048;-68
2022/10/04 02:35:33;;;;;;;17.63;9.05;;;;;;;;;;5053718;28;20120;-68
2022/10/04 02:38:05;;;;;;;16.95;8.30;;;;;;;;;;5054713;28;20087;-68
2022/10/04 02:40:35;;;;;;;14.30;9.05;;;;;;;;;;5055690;28;20776;-68
2022/10/04 02:43:09;;;;;;;15.25;7.90;;;;;;;;;;5054563;28;20077;-68
2022/10/04 02:45:35;;;;;;;9.13;6.72;;;;;;;;;;5054176;28;20049;-68
2022/10/04 02:48:04;;;;;;;6.93;4.78;;;;;;;;;;5068723;28;20041;-68
2022/10/04 02:50:34;;;;;;;9.48;5.93;;;;;;;;;;5071789;28;20041;-68
2022/10/04 02:53:10;;;;;;;6.95;4.55;;;;;;;;;;5055303;28;20642;-68
2022/10/04 02:55:37;;;;;;;9.50;5.60;;;;;;;;;;5071903;28;20049;-68
2022/10/04 02:58:08;;;;;;;7.57;4.82;;;;;;;;;;5056522;28;20075;-68
2022/10/04 03:00:45;;;;;;;7.57;4.85;;;;;;;;;;5070924;28;20055;-68
2022/10/04 03:03:11;;;;;;;10.95;5.50;;;;;;;;;;5053160;28;20043;-68
2022/10/04 03:05:37;;;;;;;8.27;5.43;;;;;;;;;;5063401;28;20041;-68
2022/10/04 03:08:04;;;;;;;6.38;4.43;;;;;;;;;;5052679;28;20045;-68
2022/10/04 03:10:30;;;;;;;6.55;3.55;;;;;;;;;;5070387;28;21140;-68
2022/10/04 03:12:57;;;;;;;8.02;4.75;;;;;;;;;;5055634;28;20136;-68
2022/10/04 03:15:23;;;;;;;8.85;5.43;;;;;;;;;;5073536;28;20128;-68
2022/10/04 03:17:49;;;;;;;7.00;4.75;;;;;;;;;;5070931;28;20052;-68
2022/10/04 03:20:20;;;;;;;9.20;5.03;;;;;;;;;;5052609;28;20111;-69
2022/10/04 03:22:47;;;;;;;7.55;5.55;;;;;;;;;;5060440;28;20111;-68
2022/10/04 03:25:15;;;;;;;7.85;4.90;;;;;;;;;;5072036;28;20136;-68
2022/10/04 03:27:43;;;;;;;7.43;4.80;;;;;;;;;;5057040;28;20037;-68
2022/10/04 03:30:19;;;;;;;6.35;4.68;;;;;;;;;;5053977;28;21036;-68
2022/10/04 03:32:46;;;;;;;7.47;4.65;;;;;;;;;;5055434;28;20041;-68
2022/10/04 03:35:19;;;;;;;9.02;5.13;;;;;;;;;;5054244;28;20554;-68
2022/10/04 03:37:46;;;;;;;10.15;5.95;;;;;;;;;;5071387;28;20037;-68
2022/10/04 03:40:14;;;;;;;12.77;6.10;;;;;;;;;;5052419;28;20048;-68
2022/10/04 03:42:40;;;;;;;10.52;5.22;;;;;;;;;;5067543;28;20180;-68
2022/10/04 03:45:07;;;;;;;11.55;4.78;;;;;;;;;;5052979;28;20427;-69
2022/10/04 03:47:35;;;;;;;16.10;4.75;;;;;;;;;;5069705;28;20439;-68
2022/10/04 03:50:11;;;;;;;13.25;5.10;;;;;;;;;;5069722;28;20068;-68
2022/10/04 03:52:38;;;;;;;8.20;4.60;;;;;;;;;;5055545;28;20128;-68
2022/10/04 03:55:06;;;;;;;12.85;5.72;;;;;;;;;;5071691;28;20597;-68
2022/10/04 03:57:34;;;;;;;32.13;21.50;;;;;;;;;;5053074;28;20510;-68
2022/10/04 04:00:01;;;;;;;20.00;12.88;;;;;;;;;;5053481;28;20182;-68
2022/10/04 04:02:32;;;;;;;27.52;15.27;;;;;;;;;;5054148;28;20538;-69
2022/10/04 04:05:10;;;;;;;19.83;13.73;;;;;;;;;;5054792;28;20124;-68
2022/10/04 04:07:45;;;;;;;14.93;8.85;;;;;;;;;;5056030;28;20523;-69
2022/10/04 04:10:11;;;;;;;11.98;7.50;;;;;;;;;;5068163;28;20041;-68
2022/10/04 04:12:39;;;;;;;13.32;8.73;;;;;;;;;;5070075;28;20059;-68
2022/10/04 04:15:13;;;;;;;82.35;29.95;;;;;;;;;;5071119;28;20033;-68
2022/10/04 04:17:40;;;;;;;108.00;37.33;;;;;;;;;;5070950;28;21257;-68
2022/10/04 04:20:15;;;;;;;103.20;42.25;;;;;;;;;;5055961;28;20121;-70
2022/10/04 04:22:43;;;;;;;24.25;11.98;;;;;;;;;;5047073;28;20045;-68
2022/10/04 04:25:13;;;;;;;14.18;7.20;;;;;;;;;;5070756;28;20044;-68
2022/10/04 04:27:41;;;;;;;12.38;6.03;;;;;;;;;;5052125;28;20114;-68
2022/10/04 04:30:08;;;;;;;11.93;5.13;;;;;;;;;;5068627;28;20109;-68
2022/10/04 04:32:41;;;;;;;15.27;6.32;;;;;;;;;;5048301;28;20534;-68
2022/10/04 04:35:21;;;;;;;11.10;4.88;;;;;;;;;;5070451;28;20072;-68
2022/10/04 04:38:01;;;;;;;13.73;5.10;;;;;;;;;;5054402;28;20037;-68
2022/10/04 04:40:27;;;;;;;15.75;4.82;;;;;;;;;;5071257;27;20037;-68
2022/10/04 04:42:57;;;;;;;92.28;41.60;;;;;;;;;;5059214;28;20052;-68
2022/10/04 04:45:25;;;;;;;59.53;27.98;;;;;;;;;;5052764;28;20045;-68
2022/10/04 04:47:52;;;;;;;25.92;11.48;;;;;;;;;;5054112;28;20045;-68
2022/10/04 04:50:20;;;;;;;46.65;23.95;;;;;;;;;;5054354;28;20055;-68
2022/10/04 04:52:49;;;;;;;35.30;18.02;;;;;;;;;;5070020;28;20048;-68
2022/10/04 04:55:19;;;;;;;30.73;17.58;;;;;;;;;;5053074;28;20048;-68
2022/10/04 04:57:47;;;;;;;58.58;34.58;;;;;;;;;;5050635;28;20045;-68
2022/10/04 05:00:18;;;;;;;43.67;26.77;;;;;;;;;;5071743;28;20045;-73
2022/10/04 05:02:57;;;;;;;21.93;12.87;;;;;;;;;;5070362;28;20420;-67
2022/10/04 05:05:24;;;;;;;15.68;10.75;;;;;;;;;;5053376;28;20045;-68
2022/10/04 05:08:03;;;;;;;11.60;7.20;;;;;;;;;;5051211;28;20041;-69
2022/10/04 05:10:30;;;;;;;9.65;5.90;;;;;;;;;;5053061;28;20608;-69
2022/10/04 05:12:58;;;;;;;9.88;4.57;;;;;;;;;;5050319;28;20128;-68
2022/10/04 05:15:25;;;;;;;8.10;3.78;;;;;;;;;;5048605;28;20072;-69
2022/10/04 05:17:52;;;;;;;4.80;3.00;;;;;;;;;;5060729;28;20562;-68
2022/10/04 05:20:18;;;;;;;7.13;3.53;;;;;;;;;;5049688;28;20041;-69
2022/10/04 05:22:47;;;;;;;7.03;3.53;;;;;;;;;;5053240;28;20053;-74
2022/10/04 05:25:15;;;;;;;9.27;5.15;;;;;;;;;;5065304;28;20056;-69
2022/10/04 05:27:44;;;;;;;9.90;4.78;;;;;;;;;;5057541;28;20076;-71
2022/10/04 05:30:19;;;;;;;5.85;3.53;;;;;;;;;;5072796;28;20148;-68
2022/10/04 05:33:01;;;;;;;12.88;5.75;;;;;;;;;;5060325;28;20052;-68
2022/10/04 05:35:28;;;;;;;12.70;4.88;;;;;;;;;;5074392;28;20044;-68
2022/10/04 05:38:08;;;;;;;13.15;6.25;;;;;;;;;;5059380;28;20506;-69
2022/10/04 05:40:34;;;;;;;12.45;6.25;;;;;;;;;;5074238;28;20044;-70
2022/10/04 05:43:00;;;;;;;18.73;7.35;;;;;;;;;;5057020;28;20052;-73
2022/10/04 05:45:27;;;;;;;11.20;5.88;;;;;;;;;;5071477;28;20044;-73
2022/10/04 05:47:54;;;;;;;10.30;6.78;;;;;;;;;;5055403;28;20832;-77
2022/10/04 05:50:20;;;;;;;13.68;7.00;;;;;;;;;;5070120;28;20049;-70
2022/10/04 05:52:48;;;;;;;17.90;8.75;;;;;;;;;;5053290;28;20040;-69
2022/10/04 05:55:16;;;;;;;11.07;6.00;;;;;;;;;;5072336;28;21188;-69
2022/10/04 05:58:02;;;;;;;13.70;6.90;;;;;;;;;;5048975;28;20137;-70
2022/10/04 06:00:52;;;;;;;10.82;6.85;;;;;;;;;;5055751;28;20045;-70
2022/10/04 06:03:20;;;;;;;13.75;6.38;;;;;;;;;;5041215;28;20168;-70
2022/10/04 06:05:47;;;;;;;15.30;4.95;;;;;;;;;;5067870;28;20044;-70
2022/10/04 06:08:22;;;;;;;22.35;6.55;;;;;;;;;;5056428;28;20045;-70
2022/10/04 06:10:51;;;;;;;14.93;5.15;;;;;;;;;;5056138;28;20073;-70
2022/10/04 06:13:50;;;;;;;13.40;5.55;;;;;;;;;;5066355;28;20072;-69
2022/10/04 06:16:29;;;;;;;12.02;7.00;;;;;;;;;;5052159;28;20172;-70
2022/10/04 06:19:07;;;;;;;18.58;6.25;;;;;;;;;;5051512;28;20123;-70
2022/10/04 06:22:06;;;;;;;12.93;6.90;;;;;;;;;;5054831;28;20144;-70
2022/10/04 06:24:36;;;;;;;18.27;7.70;;;;;;;;;;5030947;28;20093;-70
2022/10/04 06:27:11;;;;;;;20.73;8.25;;;;;;;;;;5052651;28;20830;-69
2022/10/04 06:29:39;;;;;;;20.15;7.88;;;;;;;;;;5066502;28;20037;-71
2022/10/04 06:32:25;;;;;;;17.05;7.90;;;;;;;;;;5046859;28;20045;-72
2022/10/04 06:34:59;;;;;;;16.67;5.78;;;;;;;;;;5038439;28;20080;-71
2022/10/04 06:37:32;;;;;;;14.05;6.68;;;;;;;;;;5048951;28;20159;-71
2022/10/04 06:39:57;;;;;;;;;;;;;;;;;;5054750;28;20120;-71
2022/10/04 06:42:42;;;;;;;14.00;6.07;;;;;;;;;;5049116;28;20392;-71
2022/10/04 06:45:40;;;;;;;12.68;7.28;;;;;;;;;;5066792;28;20470;-71
2022/10/04 06:48:18;;;;;;;15.88;6.47;;;;;;;;;;5026573;28;20057;-67
2022/10/04 06:51:11;;;;;;;17.88;7.05;;;;;;;;;;5071520;28;20124;-67
2022/10/04 06:53:57;;;;;;;14.80;7.95;;;;;;;;;;5056129;28;20044;-68
2022/10/04 06:56:42;;;;;;;18.35;8.50;;;;;;;;;;5049566;28;20139;-68
2022/10/04 06:59:12;;;;;;;16.42;7.93;;;;;;;;;;5057865;28;20345;-68
2022/10/04 07:01:47;;;;;;;19.30;9.50;;;;;;;;;;5058511;28;20041;-69
2022/10/04 07:04:14;;;;;;;16.63;6.90;;;;;;;;;;5072036;28;20057;-68
2022/10/04 07:07:22;;;;;;;19.67;7.95;;;;;;;;;;5072897;28;20049;-68
2022/10/04 07:09:46;;;;;;;22.90;7.75;;;;;;;;;;5057880;28;20630;-68
2022/10/04 07:12:16;;;;;;;20.02;7.95;;;;;;;;;;5056543;28;20132;-68
2022/10/04 07:14:48;;;;;;;16.60;7.68;;;;;;;;;;5057607;28;20063;-68
2022/10/04 07:17:18;;;;;;;20.08;7.95;;;;;;;;;;5056652;28;20059;-69
2022/10/04 07:19:48;;;;;;;15.85;7.60;;;;;;;;;;5056172;28;20048;-68
2022/10/04 07:22:17;;;;;;;17.88;7.72;;;;;;;;;;5057114;28;20065;-68
2022/10/04 07:25:02;;;;;;;20.02;7.22;;;;;;;;;;5072293;28;20970;-68
2022/10/04 07:27:46;;;;;;;17.17;7.20;;;;;;;;;;5057939;28;21058;-68
2022/10/04 07:30:17;;;;;;;10.57;5.75;;;;;;;;;;5057417;28;20072;-68
2022/10/04 07:32:44;;;;;;;15.07;6.57;;;;;;;;;;5057574;28;20110;-68
2022/10/04 07:35:13;;;;;;;14.07;6.30;;;;;;;;;;5055539;28;20053;-69
2022/10/04 07:37:57;;;;;;;11.38;6.53;;;;;;;;;;5057394;28;20621;-68
2022/10/04 07:40:32;;;;;;;15.60;5.75;;;;;;;;;;5057617;28;20069;-68
2022/10/04 07:43:00;;;;;;;8.02;5.32;;;;;;;;;;5057629;28;20064;-68
2022/10/04 07:45:33;;;;;;;10.15;5.68;;;;;;;;;;5055562;28;20045;-68
2022/10/04 07:48:04;;;;;;;10.13;5.00;;;;;;;;;;5054921;28;20063;-68
2022/10/04 07:50:36;;;;;;;11.93;7.18;;;;;;;;;;5057281;28;20072;-68
2022/10/04 07:53:02;;;;;;;14.00;7.80;;;;;;;;;;5055399;28;20072;-68
2022/10/04 07:55:38;;;;;;;15.93;7.55;;;;;;;;;;5057038;28;20041;-68
2022/10/04 07:58:23;;;;;;;13.07;7.50;;;;;;;;;;5054858;28;20072;-68
2022/10/04 08:00:56;;;;;;;11.15;6.43;;;;;;;;;;5057270;28;20044;-68
2022/10/04 08:03:29;;;;;;;13.70;7.35;;;;;;;;;;5069761;28;20041;-68
2022/10/04 08:06:17;;;;;;;12.68;6.35;;;;;;;;;;5056642;28;20052;-68
2022/10/04 08:09:02;;;;;;;16.33;7.50;;;;;;;;;;5071982;28;20107;-68
2022/10/04 08:11:43;;;;;;;13.15;6.50;;;;;;;;;;5070594;28;20076;-68
2022/10/04 08:14:16;;;;;;;10.05;6.45;;;;;;;;;;5057186;28;20120;-68
2022/10/04 08:17:05;;;;;;;10.55;6.38;;;;;;;;;;5055179;28;20040;-68
2022/10/04 08:19:35;;;;;;;9.52;6.72;;;;;;;;;;5056325;28;20530;-68
2022/10/04 08:22:12;;;;;;;12.43;6.75;;;;;;;;;;5054862;28;20039;-68
2022/10/04 08:24:43;;;;;;;10.60;5.90;;;;;;;;;;5056819;28;20044;-68
2022/10/04 08:27:28;;;;;;;11.98;6.43;;;;;;;;;;5071752;28;20049;-68
2022/10/04 08:30:00;;;;;;;18.80;7.35;;;;;;;;;;5072433;28;20517;-68
2022/10/04 08:32:26;;;;;;;;;;;;;;;;;;5070394;28;20067;-68
2022/10/04 08:35:01;;;;;;;10.23;6.18;;;;;;;;;;5058052;28;20003;-67
2022/10/04 08:37:45;;;;;;;9.75;6.15;;;;;;;;;;5057351;28;20052;-68
2022/10/04 08:40:14;;;;;;;10.55;6.53;;;;;;;;;;5054919;28;20045;-68
2022/10/04 08:42:52;;;;;;;9.98;6.90;;;;;;;;;;5063718;28;20044;-68
2022/10/04 08:45:36;;;;;;;12.43;7.82;;;;;;;;;;5056634;28;20051;-69
2022/10/04 08:48:23;;;;;;;14.98;7.72;;;;;;;;;;5063868;28;20092;-68
2022/10/04 08:51:07;;;;;;;10.32;6.43;;;;;;;;;;5057053;28;20045;-68
2022/10/04 08:53:49;;;;;;;11.77;7.13;;;;;;;;;;5057390;28;20064;-68
2022/10/04 08:56:16;;;;;;;12.17;7.03;;;;;;;;;;5057592;28;20041;-68
2022/10/04 08:59:05;;;;;;;12.45;7.00;;;;;;;;;;5073740;28;20657;-68
2022/10/04 09:01:50;;;;;;;13.68;7.30;;;;;;;;;;5058681;28;20153;-68
2022/10/04 09:04:35;;;;;;;10.75;6.28;;;;;;;;;;5072674;28;20493;-68
2022/10/04 09:07:01;;;;;;;10.75;7.18;;;;;;;;;;5053988;28;20124;-69
2022/10/04 09:09:46;;;;;;;15.63;7.43;;;;;;;;;;5070790;28;20055;-69
2022/10/04 09:12:19;;;;;;;13.02;7.00;;;;;;;;;;5058818;28;20041;-68
2022/10/04 09:15:03;;;;;;;14.48;7.60;;;;;;;;;;5058148;28;20087;-68
2022/10/04 09:17:38;;;;;;;12.25;6.22;;;;;;;;;;5073980;28;20036;-68
2022/10/04 09:20:04;;;;;;;12.80;7.40;;;;;;;;;;5072993;28;20937;-69
2022/10/04 09:22:47;;;;;;;10.95;6.97;;;;;;;;;;5066258;28;20144;-68
2022/10/04 09:25:29;;;;;;;10.45;6.18;;;;;;;;;;5058292;28;20585;-69
2022/10/04 09:27:55;;;;;;;;;;;;;;;;;;5075093;28;20146;-68
2022/10/04 09:30:24;;;;;;;7.75;4.30;;;;;;;;;;5058108;28;19925;-68
2022/10/04 09:32:50;;;;;;;10.52;4.78;;;;;;;;;;5059596;28;21008;-68
2022/10/04 09:35:23;;;;;;;9.88;6.43;;;;;;;;;;5057934;28;20159;-68
2022/10/04 09:37:49;;;;;;;9.80;6.50;;;;;;;;;;5074259;28;20077;-68
2022/10/04 09:40:30;;;;;;;12.00;5.13;;;;;;;;;;5058919;28;20519;-68
2022/10/04 09:43:13;;;;;;;8.98;4.70;;;;;;;;;;5056937;28;20484;-69
2022/10/04 09:45:41;;;;;;;8.75;5.43;;;;;;;;;;5058533;28;20051;-69
2022/10/04 09:48:08;;;;;;;8.07;4.95;;;;;;;;;;5074750;28;20091;-68
2022/10/04 09:50:53;;;;;;;10.52;6.43;;;;;;;;;;5057464;28;20052;-69
2022/10/04 09:53:25;;;;;;;7.53;5.28;;;;;;;;;;5057226;28;20069;-68
2022/10/04 09:55:51;;;;;;;9.68;5.15;;;;;;;;;;5072316;28;20044;-69
2022/10/04 09:58:36;;;;;;;7.00;4.85;;;;;;;;;;5073722;28;20593;-68
2022/10/04 10:01:02;;;;;;;11.57;5.60;;;;;;;;;;5059877;28;20037;-68
2022/10/04 10:03:46;;;;;;;11.35;5.38;;;;;;;;;;5056754;28;20048;-68
2022/10/04 10:06:13;;;;;;;10.07;5.75;;;;;;;;;;5073864;28;20067;-69
2022/10/04 10:08:57;;;;;;;8.15;4.95;;;;;;;;;;5059467;28;20569;-68
2022/10/04 10:14:33;;;;;;;16.33;5.45;;;;;;;;;;5057417;28;20535;-69
2022/10/04 10:17:19;;;;;;;7.72;4.07;;;;;;;;;;5057889;28;20091;-69
2022/10/04 10:20:00;;;;;;;9.75;5.35;;;;;;;;;;5058655;28;20072;-68
2022/10/04 10:22:33;;;;;;;9.00;4.90;;;;;;;;;;5059017;28;20053;-68
2022/10/04 10:25:18;;;;;;;10.73;4.40;;;;;;;;;;5056907;28;20532;-68
2022/10/04 10:27:44;;;;;;;7.72;4.50;;;;;;;;;;5057764;28;20043;-68
2022/10/04 10:30:14;;;;;;;5.55;4.10;;;;;;;;;;5057947;28;20043;-68
2022/10/04 10:32:43;;;;;;;6.97;3.95;;;;;;;;;;5058643;28;20048;-68
2022/10/04 10:35:19;;;;;;;6.07;3.83;;;;;;;;;;5073291;28;20593;-68
2022/10/04 10:37:45;;;;;;;7.50;4.15;;;;;;;;;;5059440;28;20112;-68
2022/10/04 10:40:15;;;;;;;6.38;4.32;;;;;;;;;;5063627;28;20059;-68
2022/10/04 10:42:57;;;;;;;8.02;4.30;;;;;;;;;;5057719;28;20045;-68
2022/10/04 10:45:39;;;;;;;3.67;2.75;;;;;;;;;;5058565;28;20145;-68
2022/10/04 10:48:23;;;;;;;5.30;2.88;;;;;;;;;;5058637;28;20041;-68
2022/10/04 10:51:02;;;;;;;5.18;3.35;;;;;;;;;;5056591;28;20064;-69
2022/10/04 10:53:47;;;;;;;7.95;3.28;;;;;;;;;;5058202;28;20041;-68
2022/10/04 10:56:19;;;;;;;3.50;2.28;;;;;;;;;;5056876;28;20045;-68
2022/10/04 10:58:51;;;;;;;5.13;2.65;;;;;;;;;;5057236;28;20124;-68
2022/10/04 11:01:24;;;;;;;4.43;2.40;;;;;;;;;;5057508;28;20100;-68
2022/10/04 11:04:11;;;;;;;4.50;2.60;;;;;;;;;;5073260;28;20053;-68
2022/10/04 11:06:38;;;;;;;5.45;3.05;;;;;;;;;;5058766;28;20734;-68
2022/10/04 11:09:17;;;;;;;6.05;3.03;;;;;;;;;;5058133;28;20111;-68
2022/10/04 11:11:43;;;;;;;3.08;2.05;;;;;;;;;;5058126;28;21368;-68
2022/10/04 11:14:21;;;;;;;5.45;2.80;;;;;;;;;;5057548;28;20040;-68
2022/10/04 11:17:00;;;;;;;4.70;2.50;;;;;;;;;;5057676;28;20037;-69
2022/10/04 11:19:49;;;;;;;4.28;2.58;;;;;;;;;;5058456;28;20033;-69
2022/10/04 11:22:21;;;;;;;6.82;3.30;;;;;;;;;;5050574;28;20076;-69
2022/10/04 11:25:10;;;;;;;4.70;2.47;;;;;;;;;;5056098;28;20045;-69
2022/10/04 11:27:41;;;;;;;6.95;3.08;;;;;;;;;;5057172;28;20041;-69
2022/10/04 11:30:08;;;;;;;4.57;2.70;;;;;;;;;;5056072;28;20044;-69
2022/10/04 11:32:52;;;;;;;3.95;1.90;;;;;;;;;;5058370;28;20049;-69
2022/10/04 11:35:33;;;;;;;4.68;1.80;;;;;;;;;;5056350;28;20458;-69
2022/10/04 11:38:18;;;;;;;4.18;2.22;;;;;;;;;;5057599;28;20041;-68
2022/10/04 11:40:47;;;;;;;5.07;2.65;;;;;;;;;;5057476;28;20129;-69
2022/10/04 11:43:19;;;;;;;4.70;2.45;;;;;;;;;;5057679;28;20491;-69
2022/10/04 11:46:04;;;;;;;3.13;2.13;;;;;;;;;;5056852;28;20041;-69
2022/10/04 11:48:52;;;;;;;7.10;2.63;;;;;;;;;;5056938;28;20111;-68
2022/10/04 11:51:27;;;;;;;4.75;2.28;;;;;;;;;;5055904;28;20067;-69
2022/10/04 11:54:11;;;;;;;3.55;2.45;;;;;;;;;;5058238;28;20051;-69
2022/10/04 11:56:56;;;;;;;4.97;2.53;;;;;;;;;;5056831;28;20584;-68
2022/10/04 11:59:38;;;;;;;3.00;2.10;;;;;;;;;;5057000;28;20052;-68
2022/10/04 12:02:15;;;;;;;6.97;2.00;;;;;;;;;;5049860;28;20044;-68
2022/10/04 12:05:00;;;;;;;3.53;1.70;;;;;;;;;;5055691;28;20041;-68
2022/10/04 12:07:51;;;;;;;3.30;2.40;;;;;;;;;;5072223;28;20049;-69
2022/10/04 12:10:49;;;;;;;4.15;2.22;;;;;;;;;;5055658;28;20037;-69
2022/10/04 12:13:42;;;;;;;3.58;2.20;;;;;;;;;;5031015;28;20049;-69
2022/10/04 12:16:26;;;;;;;2.47;1.75;;;;;;;;;;5053551;28;20613;-68
2022/10/04 12:19:07;;;;;;;6.38;2.13;;;;;;;;;;5070913;28;20052;-69
2022/10/04 12:21:53;;;;;;;2.70;1.92;;;;;;;;;;5054527;28;20072;-68
2022/10/04 12:24:22;;;;;;;5.13;3.05;;;;;;;;;;5072381;28;20866;-69
2022/10/04 12:27:03;;;;;;;7.40;2.88;;;;;;;;;;5056613;28;20095;-71
2022/10/04 12:29:48;;;;;;;5.63;2.90;;;;;;;;;;5057520;28;20048;-69
2022/10/04 12:32:19;;;;;;;4.43;2.20;;;;;;;;;;5072230;28;20166;-68
2022/10/04 12:34:56;;;;;;;5.38;2.67;;;;;;;;;;5055831;28;20220;-68
2022/10/04 12:37:28;;;;;;;3.55;2.03;;;;;;;;;;5063161;28;21075;-69
2022/10/04 12:39:57;;;;;;;4.07;1.73;;;;;;;;;;5072782;28;20049;-69
2022/10/04 12:42:23;;;;;;;3.80;2.30;;;;;;;;;;5072615;28;20048;-68
2022/10/04 12:44:55;;;;;;;5.05;2.05;;;;;;;;;;5069877;28;20053;-69
2022/10/04 12:47:31;;;;;;;3.78;2.50;;;;;;;;;;5056742;28;20467;-68
2022/10/04 12:50:00;;;;;;;6.07;1.92;;;;;;;;;;5056125;28;21017;-69
2022/10/04 12:52:32;;;;;;;5.07;2.75;;;;;;;;;;5055721;28;20043;-68
2022/10/04 12:54:58;;;;;;;5.10;2.00;;;;;;;;;;5056702;28;20049;-68
2022/10/04 12:57:32;;;;;;;6.13;2.65;;;;;;;;;;5055819;28;20045;-68
2022/10/04 12:59:58;;;;;;;7.13;2.00;;;;;;;;;;5056151;28;20095;-68
2022/10/04 13:02:40;;;;;;;3.47;2.38;;;;;;;;;;5055452;28;20632;-69
2022/10/04 13:05:16;;;;;;;5.30;2.03;;;;;;;;;;5055619;28;20041;-68
2022/10/04 13:07:50;;;;;;;3.47;1.95;;;;;;;;;;5070940;28;20125;-68
2022/10/04 13:10:44;;;;;;;3.50;2.35;;;;;;;;;;5055463;28;20041;-69
2022/10/04 13:13:22;;;;;;;7.65;2.72;;;;;;;;;;5055397;28;20101;-68
2022/10/04 13:15:57;;;;;;;3.22;1.90;;;;;;;;;;5069689;28;20462;-68
2022/10/04 13:18:42;;;;;;;6.82;2.38;;;;;;;;;;5070222;28;20041;-68
2022/10/04 13:21:10;;;;;;;5.20;1.80;;;;;;;;;;5068995;28;20043;-68
2022/10/04 13:23:55;;;;;;;5.15;2.00;;;;;;;;;;5053842;28;20053;-68
2022/10/04 13:26:25;;;;;;;4.35;2.15;;;;;;;;;;5054286;28;20349;-68
2022/10/04 13:29:01;;;;;;;3.78;1.95;;;;;;;;;;5070978;28;20087;-69
2022/10/04 13:31:34;;;;;;;2.72;1.73;;;;;;;;;;5056453;28;20124;-68
2022/10/04 13:34:19;;;;;;;3.17;1.95;;;;;;;;;;5056498;28;20049;-69
2022/10/04 13:37:04;;;;;;;3.10;1.75;;;;;;;;;;5067882;28;20045;-68
2022/10/04 13:39:51;;;;;;;2.97;2.15;;;;;;;;;;5054844;28;20048;-69
2022/10/04 13:42:20;;;;;;;3.20;1.65;;;;;;;;;;5071080;28;20545;-68
2022/10/04 13:45:12;;;;;;;3.35;2.30;;;;;;;;;;5057819;28;21196;-69
2022/10/04 13:47:38;;;;;;;4.50;2.17;;;;;;;;;;5058496;28;20131;-68
2022/10/04 13:50:07;;;;;;;4.40;1.92;;;;;;;;;;5074639;28;20033;-68
2022/10/04 13:58:39;;;;;;;4.10;2.58;;;;;;;;;;5058870;28;20083;-68
2022/10/04 14:01:11;;;;;;;3.92;1.75;;;;;;;;;;5059493;28;20120;-68
2022/10/04 14:03:58;;;;;;;4.43;2.90;;;;;;;;;;5057810;28;20045;-69
2022/10/04 14:06:30;;;;;;;3.10;1.90;;;;;;;;;;5075289;28;20048;-69
2022/10/04 14:09:01;;;;;;;4.32;2.45;;;;;;;;;;5058015;28;20056;-68
2022/10/04 14:11:43;;;;;;;4.23;2.00;;;;;;;;;;5075736;28;20037;-68
2022/10/04 14:14:09;;;;;;;3.08;1.77;;;;;;;;;;5074597;28;20041;-68
2022/10/04 14:16:56;;;;;;;3.40;1.98;;;;;;;;;;5071592;28;20045;-68
2022/10/04 14:19:40;;;;;;;5.65;2.78;;;;;;;;;;5059566;28;20037;-68
2022/10/04 14:22:16;;;;;;;5.25;2.10;;;;;;;;;;5056870;28;20064;-68
2022/10/04 14:24:52;;;;;;;5.15;1.90;;;;;;;;;;5059176;28;20045;-68
2022/10/04 14:27:38;;;;;;;3.85;1.90;;;;;;;;;;5072845;28;20041;-68
2022/10/04 14:30:11;;;;;;;5.10;2.10;;;;;;;;;;5056801;28;20124;-68
2022/10/04 14:32:50;;;;;;;8.85;3.35;;;;;;;;;;5065658;28;20045;-68
2022/10/04 14:35:29;;;;;;;3.63;2.40;;;;;;;;;;5057292;28;20676;-68
2022/10/04 14:37:58;;;;;;;5.25;2.50;;;;;;;;;;5065925;28;20971;-68
2022/10/04 14:40:25;;;;;;;3.67;2.22;;;;;;;;;;5073522;28;20532;-68
2022/10/04 14:42:51;;;;;;;2.90;2.05;;;;;;;;;;5072757;28;20049;-68
2022/10/04 14:45:36;;;;;;;3.10;1.67;;;;;;;;;;5058974;28;20098;-68
2022/10/04 14:48:23;;;;;;;3.63;1.90;;;;;;;;;;5057947;28;20037;-68
2022/10/04 14:51:09;;;;;;;5.32;2.05;;;;;;;;;;5058744;28;20162;-68
2022/10/04 14:53:41;;;;;;;3.58;1.70;;;;;;;;;;5052537;28;20558;-68
2022/10/04 14:56:32;;;;;;;6.70;1.88;;;;;;;;;;5058451;28;20150;-68
2022/10/04 14:59:08;;;;;;;5.50;2.88;;;;;;;;;;5074049;28;20041;-68
2022/10/04 15:01:37;;;;;;;3.88;2.13;;;;;;;;;;5066218;28;20546;-68
2022/10/04 15:04:07;;;;;;;4.45;2.08;;;;;;;;;;5058263;28;20045;-68
2022/10/04 15:06:33;;;;;;;4.60;2.20;;;;;;;;;;5071816;28;20115;-68
2022/10/04 15:08:59;;;;;;;3.78;1.80;;;;;;;;;;5065999;28;20523;-68
2022/10/04 15:11:44;;;;;;;3.45;1.88;;;;;;;;;;5057678;28;20305;-68
2022/10/04 15:14:22;;;;;;;4.25;1.92;;;;;;;;;;5073708;28;20029;-68
2022/10/04 15:16:52;;;;;;;8.75;2.40;;;;;;;;;;5057155;28;20041;-68
2022/10/04 15:19:21;;;;;;;2.90;1.88;;;;;;;;;;5058272;28;20048;-68
2022/10/04 15:21:58;;;;;;;9.30;4.22;;;;;;;;;;5055890;28;20075;-68
2022/10/04 15:24:26;;;;;;;3.92;2.92;;;;;;;;;;5058666;28;20533;-68
2022/10/04 15:27:18;;;;;;;5.72;2.47;;;;;;;;;;5057016;28;20533;-68